sensor_id;sensor_type;location;lat;lon;timestamp;P1;durP1;ratioP1;P2;durP2;ratioP2
7191;SDS011;3637;51.494;11.958;2022-08-21T00:01:26;12.67;;;8.37;;
7191;SDS011;3637;51.494;11.958;2022-08-21T00:04:29;11.30;;;8.63;;
7191;SDS011;3637;51.494;11.958;2022-08-21T00:07:31;11.60;;;8.90;;
7191;SDS011;3637;51.494;11.958;2022-08-21T00:10:33;12.07;;;8.20;;
7191;SDS011;3637;51.494;11.958;2022-08-21T00:13:37;9.87;;;7.97;;
7191;SDS011;3637;51.494;11.958;2022-08-21T00:16:39;10.77;;;8.53;;
7191;SDS011;3637;51.494;11.958;2022-08-21T00:19:41;10.20;;;7.77;;
7191;SDS011;3637;51.494;11.958;2022-08-21T00:22:43;9.23;;;8.07;;
7191;SDS011;3637;51.494;11.958;2022-08-21T00:25:45;10.13;;;7.50;;
7191;SDS011;3637;51.494;11.958;2022-08-21T00:28:48;9.63;;;7.77;;
7191;SDS011;3637;51.494;11.958;2022-08-21T00:31:50;11.60;;;8.40;;
7191;SDS011;3637;51.494;11.958;2022-08-21T00:34:53;15.23;;;8.20;;
7191;SDS011;3637;51.494;11.958;2022-08-21T00:37:56;8.90;;;7.60;;
7191;SDS011;3637;51.494;11.958;2022-08-21T00:40:59;10.33;;;7.83;;
7191;SDS011;3637;51.494;11.958;2022-08-21T00:44:03;8.87;;;7.07;;
7191;SDS011;3637;51.494;11.958;2022-08-21T00:47:06;9.63;;;6.90;;
7191;SDS011;3637;51.494;11.958;2022-08-21T00:50:09;8.37;;;6.50;;
7191;SDS011;3637;51.494;11.958;2022-08-21T00:53:12;7.50;;;6.40;;
7191;SDS011;3637;51.494;11.958;2022-08-21T00:56:15;8.30;;;6.03;;
7191;SDS011;3637;51.494;11.958;2022-08-21T00:59:19;7.00;;;5.73;;
7191;SDS011;3637;51.494;11.958;2022-08-21T01:02:22;8.60;;;6.60;;
7191;SDS011;3637;51.494;11.958;2022-08-21T01:05:24;7.20;;;6.30;;
7191;SDS011;3637;51.494;11.958;2022-08-21T01:08:27;7.23;;;6.17;;
7191;SDS011;3637;51.494;11.958;2022-08-21T01:11:30;7.37;;;6.03;;
7191;SDS011;3637;51.494;11.958;2022-08-21T01:14:33;6.63;;;5.60;;
7191;SDS011;3637;51.494;11.958;2022-08-21T01:17:36;7.67;;;5.93;;
7191;SDS011;3637;51.494;11.958;2022-08-21T01:20:38;8.90;;;5.97;;
7191;SDS011;3637;51.494;11.958;2022-08-21T01:23:46;6.63;;;5.93;;
7191;SDS011;3637;51.494;11.958;2022-08-21T01:26:52;6.43;;;5.30;;
7191;SDS011;3637;51.494;11.958;2022-08-21T01:29:56;6.40;;;5.13;;
7191;SDS011;3637;51.494;11.958;2022-08-21T01:33:00;6.07;;;4.90;;
7191;SDS011;3637;51.494;11.958;2022-08-21T01:36:02;6.27;;;5.33;;
7191;SDS011;3637;51.494;11.958;2022-08-21T01:39:06;7.20;;;4.93;;
7191;SDS011;3637;51.494;11.958;2022-08-21T01:42:09;5.57;;;4.83;;
7191;SDS011;3637;51.494;11.958;2022-08-21T01:45:11;4.63;;;4.03;;
7191;SDS011;3637;51.494;11.958;2022-08-21T01:48:14;5.27;;;4.30;;
7191;SDS011;3637;51.494;11.958;2022-08-21T01:51:16;5.23;;;4.43;;
7191;SDS011;3637;51.494;11.958;2022-08-21T01:54:19;4.23;;;3.83;;
7191;SDS011;3637;51.494;11.958;2022-08-21T01:57:21;5.43;;;3.73;;
7191;SDS011;3637;51.494;11.958;2022-08-21T02:00:23;4.27;;;3.60;;
7191;SDS011;3637;51.494;11.958;2022-08-21T02:03:25;5.47;;;3.90;;
7191;SDS011;3637;51.494;11.958;2022-08-21T02:06:27;6.30;;;3.53;;
7191;SDS011;3637;51.494;11.958;2022-08-21T02:09:30;3.93;;;3.20;;
7191;SDS011;3637;51.494;11.958;2022-08-21T02:12:33;4.13;;;3.60;;
7191;SDS011;3637;51.494;11.958;2022-08-21T02:15:35;6.80;;;3.60;;
7191;SDS011;3637;51.494;11.958;2022-08-21T02:18:37;4.00;;;3.37;;
7191;SDS011;3637;51.494;11.958;2022-08-21T02:21:39;5.00;;;3.20;;
7191;SDS011;3637;51.494;11.958;2022-08-21T02:24:43;3.17;;;2.87;;
7191;SDS011;3637;51.494;11.958;2022-08-21T02:27:45;4.13;;;3.30;;
7191;SDS011;3637;51.494;11.958;2022-08-21T02:30:49;5.10;;;3.27;;
7191;SDS011;3637;51.494;11.958;2022-08-21T02:33:51;3.37;;;2.80;;
7191;SDS011;3637;51.494;11.958;2022-08-21T02:36:53;3.90;;;3.10;;
7191;SDS011;3637;51.494;11.958;2022-08-21T02:39:56;3.73;;;3.10;;
7191;SDS011;3637;51.494;11.958;2022-08-21T02:43:00;3.87;;;2.70;;
7191;SDS011;3637;51.494;11.958;2022-08-21T02:46:03;3.60;;;2.70;;
7191;SDS011;3637;51.494;11.958;2022-08-21T02:49:07;3.97;;;2.83;;
7191;SDS011;3637;51.494;11.958;2022-08-21T02:52:08;4.27;;;3.10;;
7191;SDS011;3637;51.494;11.958;2022-08-21T02:55:13;4.10;;;2.93;;
7191;SDS011;3637;51.494;11.958;2022-08-21T02:58:15;3.50;;;2.93;;
7191;SDS011;3637;51.494;11.958;2022-08-21T03:01:19;4.47;;;2.80;;
7191;SDS011;3637;51.494;11.958;2022-08-21T03:04:21;8.60;;;2.60;;
7191;SDS011;3637;51.494;11.958;2022-08-21T03:07:23;3.87;;;2.90;;
7191;SDS011;3637;51.494;11.958;2022-08-21T03:10:27;4.27;;;2.73;;
7191;SDS011;3637;51.494;11.958;2022-08-21T03:13:30;3.90;;;3.00;;
7191;SDS011;3637;51.494;11.958;2022-08-21T03:16:33;3.93;;;2.90;;
7191;SDS011;3637;51.494;11.958;2022-08-21T03:19:35;3.43;;;2.80;;
7191;SDS011;3637;51.494;11.958;2022-08-21T03:22:36;4.37;;;2.70;;
7191;SDS011;3637;51.494;11.958;2022-08-21T03:25:40;3.67;;;2.80;;
7191;SDS011;3637;51.494;11.958;2022-08-21T03:28:42;3.93;;;2.83;;
7191;SDS011;3637;51.494;11.958;2022-08-21T03:31:44;4.50;;;2.50;;
7191;SDS011;3637;51.494;11.958;2022-08-21T03:34:46;4.20;;;2.80;;
7191;SDS011;3637;51.494;11.958;2022-08-21T03:37:48;3.30;;;2.53;;
7191;SDS011;3637;51.494;11.958;2022-08-21T03:40:51;3.27;;;2.87;;
7191;SDS011;3637;51.494;11.958;2022-08-21T03:43:54;5.77;;;3.10;;
7191;SDS011;3637;51.494;11.958;2022-08-21T03:46:56;4.07;;;2.83;;
7191;SDS011;3637;51.494;11.958;2022-08-21T03:49:58;4.03;;;2.83;;
7191;SDS011;3637;51.494;11.958;2022-08-21T03:53:00;3.37;;;2.80;;
7191;SDS011;3637;51.494;11.958;2022-08-21T03:56:04;4.43;;;2.93;;
7191;SDS011;3637;51.494;11.958;2022-08-21T03:59:07;5.10;;;3.10;;
7191;SDS011;3637;51.494;11.958;2022-08-21T04:02:09;4.47;;;3.00;;
7191;SDS011;3637;51.494;11.958;2022-08-21T04:05:12;3.50;;;3.00;;
7191;SDS011;3637;51.494;11.958;2022-08-21T04:08:26;5.73;;;3.20;;
7191;SDS011;3637;51.494;11.958;2022-08-21T04:11:30;4.83;;;2.77;;
7191;SDS011;3637;51.494;11.958;2022-08-21T04:14:31;3.13;;;2.83;;
7191;SDS011;3637;51.494;11.958;2022-08-21T04:17:33;5.37;;;2.93;;
7191;SDS011;3637;51.494;11.958;2022-08-21T04:20:36;4.10;;;2.97;;
7191;SDS011;3637;51.494;11.958;2022-08-21T04:23:38;3.50;;;3.20;;
7191;SDS011;3637;51.494;11.958;2022-08-21T04:26:41;3.80;;;2.87;;
7191;SDS011;3637;51.494;11.958;2022-08-21T04:29:43;3.67;;;2.90;;
7191;SDS011;3637;51.494;11.958;2022-08-21T04:32:45;3.13;;;2.83;;
7191;SDS011;3637;51.494;11.958;2022-08-21T04:35:49;3.50;;;3.20;;
7191;SDS011;3637;51.494;11.958;2022-08-21T04:38:51;4.07;;;3.10;;
7191;SDS011;3637;51.494;11.958;2022-08-21T04:41:55;3.63;;;3.10;;
7191;SDS011;3637;51.494;11.958;2022-08-21T04:44:57;3.77;;;3.20;;
7191;SDS011;3637;51.494;11.958;2022-08-21T04:48:00;5.17;;;3.37;;
7191;SDS011;3637;51.494;11.958;2022-08-21T04:51:06;3.33;;;3.03;;
7191;SDS011;3637;51.494;11.958;2022-08-21T04:54:12;4.60;;;2.80;;
7191;SDS011;3637;51.494;11.958;2022-08-21T04:57:19;4.20;;;2.77;;
7191;SDS011;3637;51.494;11.958;2022-08-21T05:00:22;4.03;;;3.30;;
7191;SDS011;3637;51.494;11.958;2022-08-21T05:03:25;3.80;;;3.17;;
7191;SDS011;3637;51.494;11.958;2022-08-21T05:06:28;3.97;;;3.20;;
7191;SDS011;3637;51.494;11.958;2022-08-21T05:09:32;4.50;;;2.90;;
7191;SDS011;3637;51.494;11.958;2022-08-21T05:12:37;3.97;;;3.10;;
7191;SDS011;3637;51.494;11.958;2022-08-21T05:15:39;3.93;;;3.00;;
7191;SDS011;3637;51.494;11.958;2022-08-21T05:18:41;3.83;;;3.17;;
7191;SDS011;3637;51.494;11.958;2022-08-21T05:21:44;3.87;;;3.20;;
7191;SDS011;3637;51.494;11.958;2022-08-21T05:24:47;3.60;;;3.30;;
7191;SDS011;3637;51.494;11.958;2022-08-21T05:27:50;3.67;;;3.23;;
7191;SDS011;3637;51.494;11.958;2022-08-21T05:30:53;4.67;;;3.03;;
7191;SDS011;3637;51.494;11.958;2022-08-21T05:33:55;3.63;;;3.20;;
7191;SDS011;3637;51.494;11.958;2022-08-21T05:36:57;5.43;;;3.43;;
7191;SDS011;3637;51.494;11.958;2022-08-21T05:39:59;6.57;;;3.43;;
7191;SDS011;3637;51.494;11.958;2022-08-21T05:43:03;5.40;;;3.57;;
7191;SDS011;3637;51.494;11.958;2022-08-21T05:46:06;3.27;;;2.97;;
7191;SDS011;3637;51.494;11.958;2022-08-21T05:49:08;3.57;;;3.03;;
7191;SDS011;3637;51.494;11.958;2022-08-21T05:52:11;3.70;;;3.03;;
7191;SDS011;3637;51.494;11.958;2022-08-21T05:55:19;4.20;;;2.83;;
7191;SDS011;3637;51.494;11.958;2022-08-21T05:58:22;3.83;;;3.33;;
7191;SDS011;3637;51.494;11.958;2022-08-21T06:01:24;4.13;;;2.73;;
7191;SDS011;3637;51.494;11.958;2022-08-21T06:04:26;4.70;;;3.13;;
7191;SDS011;3637;51.494;11.958;2022-08-21T06:07:28;6.30;;;2.90;;
7191;SDS011;3637;51.494;11.958;2022-08-21T06:10:35;5.00;;;3.00;;
7191;SDS011;3637;51.494;11.958;2022-08-21T06:13:38;3.83;;;2.83;;
7191;SDS011;3637;51.494;11.958;2022-08-21T06:16:41;3.57;;;2.87;;
7191;SDS011;3637;51.494;11.958;2022-08-21T06:19:43;3.20;;;2.80;;
7191;SDS011;3637;51.494;11.958;2022-08-21T06:22:45;4.03;;;2.37;;
7191;SDS011;3637;51.494;11.958;2022-08-21T06:25:47;3.83;;;2.73;;
7191;SDS011;3637;51.494;11.958;2022-08-21T06:28:51;3.57;;;2.47;;
7191;SDS011;3637;51.494;11.958;2022-08-21T06:31:56;2.60;;;2.40;;
7191;SDS011;3637;51.494;11.958;2022-08-21T06:34:58;6.30;;;2.70;;
7191;SDS011;3637;51.494;11.958;2022-08-21T06:38:00;4.30;;;2.10;;
7191;SDS011;3637;51.494;11.958;2022-08-21T06:41:03;2.87;;;2.20;;
7191;SDS011;3637;51.494;11.958;2022-08-21T06:44:06;4.50;;;2.43;;
7191;SDS011;3637;51.494;11.958;2022-08-21T06:47:08;4.27;;;2.57;;
7191;SDS011;3637;51.494;11.958;2022-08-21T06:50:11;2.73;;;2.07;;
7191;SDS011;3637;51.494;11.958;2022-08-21T06:53:14;4.40;;;2.57;;
7191;SDS011;3637;51.494;11.958;2022-08-21T06:56:18;4.60;;;2.33;;
7191;SDS011;3637;51.494;11.958;2022-08-21T06:59:21;3.03;;;2.40;;
7191;SDS011;3637;51.494;11.958;2022-08-21T07:02:23;6.10;;;2.53;;
7191;SDS011;3637;51.494;11.958;2022-08-21T07:05:25;5.80;;;3.03;;
7191;SDS011;3637;51.494;11.958;2022-08-21T07:08:29;2.57;;;2.23;;
7191;SDS011;3637;51.494;11.958;2022-08-21T07:11:31;2.80;;;2.50;;
7191;SDS011;3637;51.494;11.958;2022-08-21T07:14:35;3.00;;;2.30;;
7191;SDS011;3637;51.494;11.958;2022-08-21T07:17:36;2.20;;;2.00;;
7191;SDS011;3637;51.494;11.958;2022-08-21T07:20:39;4.77;;;2.30;;
7191;SDS011;3637;51.494;11.958;2022-08-21T07:23:43;2.47;;;2.27;;
7191;SDS011;3637;51.494;11.958;2022-08-21T07:26:47;3.67;;;2.40;;
7191;SDS011;3637;51.494;11.958;2022-08-21T07:29:50;3.03;;;2.20;;
7191;SDS011;3637;51.494;11.958;2022-08-21T07:32:52;4.10;;;2.40;;
7191;SDS011;3637;51.494;11.958;2022-08-21T07:35:55;2.87;;;2.10;;
7191;SDS011;3637;51.494;11.958;2022-08-21T07:38:59;3.87;;;2.00;;
7191;SDS011;3637;51.494;11.958;2022-08-21T07:42:01;2.40;;;1.97;;
7191;SDS011;3637;51.494;11.958;2022-08-21T07:45:06;2.70;;;2.20;;
7191;SDS011;3637;51.494;11.958;2022-08-21T07:48:08;2.60;;;2.00;;
7191;SDS011;3637;51.494;11.958;2022-08-21T07:51:11;3.00;;;2.20;;
7191;SDS011;3637;51.494;11.958;2022-08-21T07:54:21;2.23;;;1.73;;
7191;SDS011;3637;51.494;11.958;2022-08-21T07:57:23;2.37;;;1.97;;
7191;SDS011;3637;51.494;11.958;2022-08-21T08:00:34;2.43;;;1.97;;
7191;SDS011;3637;51.494;11.958;2022-08-21T08:03:36;1.97;;;1.87;;
7191;SDS011;3637;51.494;11.958;2022-08-21T08:06:38;3.77;;;2.00;;
7191;SDS011;3637;51.494;11.958;2022-08-21T08:09:40;5.57;;;2.10;;
7191;SDS011;3637;51.494;11.958;2022-08-21T08:12:42;2.53;;;2.20;;
7191;SDS011;3637;51.494;11.958;2022-08-21T08:15:46;3.63;;;2.20;;
7191;SDS011;3637;51.494;11.958;2022-08-21T08:18:48;3.10;;;1.90;;
7191;SDS011;3637;51.494;11.958;2022-08-21T08:21:51;3.17;;;2.10;;
7191;SDS011;3637;51.494;11.958;2022-08-21T08:24:53;2.47;;;2.07;;
7191;SDS011;3637;51.494;11.958;2022-08-21T08:27:55;4.13;;;2.07;;
7191;SDS011;3637;51.494;11.958;2022-08-21T08:30:59;4.30;;;2.23;;
7191;SDS011;3637;51.494;11.958;2022-08-21T08:34:01;2.83;;;2.00;;
7191;SDS011;3637;51.494;11.958;2022-08-21T08:37:04;3.00;;;1.90;;
7191;SDS011;3637;51.494;11.958;2022-08-21T08:40:09;6.63;;;2.00;;
7191;SDS011;3637;51.494;11.958;2022-08-21T08:43:13;2.20;;;1.70;;
7191;SDS011;3637;51.494;11.958;2022-08-21T08:46:18;2.87;;;2.10;;
7191;SDS011;3637;51.494;11.958;2022-08-21T08:49:24;4.37;;;2.10;;
7191;SDS011;3637;51.494;11.958;2022-08-21T08:52:32;3.93;;;2.17;;
7191;SDS011;3637;51.494;11.958;2022-08-21T08:55:36;2.70;;;2.10;;
7191;SDS011;3637;51.494;11.958;2022-08-21T08:58:40;3.30;;;2.00;;
7191;SDS011;3637;51.494;11.958;2022-08-21T09:01:47;4.83;;;1.97;;
7191;SDS011;3637;51.494;11.958;2022-08-21T09:04:49;3.27;;;2.10;;
7191;SDS011;3637;51.494;11.958;2022-08-21T09:07:55;2.83;;;2.00;;
7191;SDS011;3637;51.494;11.958;2022-08-21T09:11:17;3.53;;;2.13;;
7191;SDS011;3637;51.494;11.958;2022-08-21T09:14:32;3.00;;;1.90;;
7191;SDS011;3637;51.494;11.958;2022-08-21T09:17:59;2.73;;;2.10;;
7191;SDS011;3637;51.494;11.958;2022-08-21T09:21:14;2.63;;;1.90;;
7191;SDS011;3637;51.494;11.958;2022-08-21T09:24:25;4.87;;;2.20;;
7191;SDS011;3637;51.494;11.958;2022-08-21T09:27:33;3.43;;;1.77;;
7191;SDS011;3637;51.494;11.958;2022-08-21T09:30:35;3.03;;;1.90;;
7191;SDS011;3637;51.494;11.958;2022-08-21T09:33:39;1.60;;;1.50;;
7191;SDS011;3637;51.494;11.958;2022-08-21T09:36:42;2.00;;;1.70;;
7191;SDS011;3637;51.494;11.958;2022-08-21T09:39:45;2.20;;;1.50;;
7191;SDS011;3637;51.494;11.958;2022-08-21T09:42:53;2.83;;;1.70;;
7191;SDS011;3637;51.494;11.958;2022-08-21T09:46:06;3.13;;;1.67;;
7191;SDS011;3637;51.494;11.958;2022-08-21T09:49:12;2.40;;;1.73;;
7191;SDS011;3637;51.494;11.958;2022-08-21T09:52:28;5.17;;;1.83;;
7191;SDS011;3637;51.494;11.958;2022-08-21T09:55:32;3.60;;;2.00;;
7191;SDS011;3637;51.494;11.958;2022-08-21T09:58:56;2.07;;;1.77;;
7191;SDS011;3637;51.494;11.958;2022-08-21T10:01:59;1.87;;;1.70;;
7191;SDS011;3637;51.494;11.958;2022-08-21T10:05:07;2.77;;;1.90;;
7191;SDS011;3637;51.494;11.958;2022-08-21T10:08:17;3.23;;;1.70;;
7191;SDS011;3637;51.494;11.958;2022-08-21T10:11:19;2.90;;;1.77;;
7191;SDS011;3637;51.494;11.958;2022-08-21T10:14:38;2.93;;;1.90;;
7191;SDS011;3637;51.494;11.958;2022-08-21T10:17:56;4.63;;;2.37;;
7191;SDS011;3637;51.494;11.958;2022-08-21T10:21:08;2.23;;;1.83;;
7191;SDS011;3637;51.494;11.958;2022-08-21T10:24:18;2.50;;;1.90;;
7191;SDS011;3637;51.494;11.958;2022-08-21T10:27:30;2.53;;;1.80;;
7191;SDS011;3637;51.494;11.958;2022-08-21T10:30:43;2.57;;;1.90;;
7191;SDS011;3637;51.494;11.958;2022-08-21T10:33:51;2.13;;;1.90;;
7191;SDS011;3637;51.494;11.958;2022-08-21T10:37:10;2.77;;;1.93;;
7191;SDS011;3637;51.494;11.958;2022-08-21T10:40:24;4.27;;;2.07;;
7191;SDS011;3637;51.494;11.958;2022-08-21T10:43:32;5.53;;;1.80;;
7191;SDS011;3637;51.494;11.958;2022-08-21T10:46:46;3.00;;;1.97;;
7191;SDS011;3637;51.494;11.958;2022-08-21T10:49:57;2.43;;;1.63;;
7191;SDS011;3637;51.494;11.958;2022-08-21T10:53:14;3.07;;;1.80;;
7191;SDS011;3637;51.494;11.958;2022-08-21T10:56:23;3.10;;;1.80;;
7191;SDS011;3637;51.494;11.958;2022-08-21T10:59:28;3.13;;;2.00;;
7191;SDS011;3637;51.494;11.958;2022-08-21T11:02:35;2.03;;;1.83;;
7191;SDS011;3637;51.494;11.958;2022-08-21T11:05:41;3.60;;;2.00;;
7191;SDS011;3637;51.494;11.958;2022-08-21T11:08:51;3.30;;;1.87;;
7191;SDS011;3637;51.494;11.958;2022-08-21T11:11:57;3.40;;;1.90;;
7191;SDS011;3637;51.494;11.958;2022-08-21T11:15:05;3.53;;;2.00;;
7191;SDS011;3637;51.494;11.958;2022-08-21T11:18:17;3.57;;;1.97;;
7191;SDS011;3637;51.494;11.958;2022-08-21T11:21:27;2.63;;;2.00;;
7191;SDS011;3637;51.494;11.958;2022-08-21T11:24:39;3.33;;;1.87;;
7191;SDS011;3637;51.494;11.958;2022-08-21T11:27:49;2.17;;;1.83;;
7191;SDS011;3637;51.494;11.958;2022-08-21T11:30:57;1.80;;;1.70;;
7191;SDS011;3637;51.494;11.958;2022-08-21T11:34:13;2.20;;;1.90;;
7191;SDS011;3637;51.494;11.958;2022-08-21T11:37:25;2.43;;;2.23;;
7191;SDS011;3637;51.494;11.958;2022-08-21T11:40:50;3.47;;;2.97;;
7191;SDS011;3637;51.494;11.958;2022-08-21T11:44:06;3.40;;;2.10;;
7191;SDS011;3637;51.494;11.958;2022-08-21T11:47:15;2.70;;;1.90;;
7191;SDS011;3637;51.494;11.958;2022-08-21T11:50:26;2.50;;;2.17;;
7191;SDS011;3637;51.494;11.958;2022-08-21T11:53:32;2.13;;;1.90;;
7191;SDS011;3637;51.494;11.958;2022-08-21T11:56:41;3.67;;;2.20;;
7191;SDS011;3637;51.494;11.958;2022-08-21T11:59:49;2.67;;;2.10;;
7191;SDS011;3637;51.494;11.958;2022-08-21T12:02:55;2.13;;;1.93;;
7191;SDS011;3637;51.494;11.958;2022-08-21T12:06:01;3.13;;;1.97;;
7191;SDS011;3637;51.494;11.958;2022-08-21T12:09:06;2.90;;;2.00;;
7191;SDS011;3637;51.494;11.958;2022-08-21T12:12:11;2.80;;;1.90;;
7191;SDS011;3637;51.494;11.958;2022-08-21T12:15:25;2.20;;;1.93;;
7191;SDS011;3637;51.494;11.958;2022-08-21T12:18:29;3.70;;;1.90;;
7191;SDS011;3637;51.494;11.958;2022-08-21T12:21:32;2.60;;;2.07;;
7191;SDS011;3637;51.494;11.958;2022-08-21T12:24:36;3.47;;;2.03;;
7191;SDS011;3637;51.494;11.958;2022-08-21T12:27:44;2.63;;;2.07;;
7191;SDS011;3637;51.494;11.958;2022-08-21T12:30:48;2.90;;;1.90;;
7191;SDS011;3637;51.494;11.958;2022-08-21T12:33:52;3.13;;;2.20;;
7191;SDS011;3637;51.494;11.958;2022-08-21T12:36:58;5.37;;;2.07;;
7191;SDS011;3637;51.494;11.958;2022-08-21T12:40:04;2.27;;;2.00;;
7191;SDS011;3637;51.494;11.958;2022-08-21T12:43:18;2.73;;;2.10;;
7191;SDS011;3637;51.494;11.958;2022-08-21T12:46:27;3.77;;;2.20;;
7191;SDS011;3637;51.494;11.958;2022-08-21T12:49:36;3.50;;;2.23;;
7191;SDS011;3637;51.494;11.958;2022-08-21T12:52:44;2.90;;;2.50;;
7191;SDS011;3637;51.494;11.958;2022-08-21T12:55:52;2.27;;;2.00;;
7191;SDS011;3637;51.494;11.958;2022-08-21T12:59:03;3.00;;;2.00;;
7191;SDS011;3637;51.494;11.958;2022-08-21T13:02:10;3.40;;;2.20;;
7191;SDS011;3637;51.494;11.958;2022-08-21T13:05:19;2.70;;;2.03;;
7191;SDS011;3637;51.494;11.958;2022-08-21T13:08:29;3.23;;;2.30;;
7191;SDS011;3637;51.494;11.958;2022-08-21T13:11:33;3.10;;;2.40;;
7191;SDS011;3637;51.494;11.958;2022-08-21T13:14:38;4.20;;;2.30;;
7191;SDS011;3637;51.494;11.958;2022-08-21T13:17:47;4.00;;;2.30;;
7191;SDS011;3637;51.494;11.958;2022-08-21T13:21:05;5.30;;;2.20;;
7191;SDS011;3637;51.494;11.958;2022-08-21T13:24:13;2.77;;;2.20;;
7191;SDS011;3637;51.494;11.958;2022-08-21T13:27:19;3.17;;;1.90;;
7191;SDS011;3637;51.494;11.958;2022-08-21T13:30:25;3.97;;;2.30;;
7191;SDS011;3637;51.494;11.958;2022-08-21T13:33:27;2.53;;;2.30;;
7191;SDS011;3637;51.494;11.958;2022-08-21T13:36:32;3.93;;;2.20;;
7191;SDS011;3637;51.494;11.958;2022-08-21T13:39:37;3.87;;;1.90;;
7191;SDS011;3637;51.494;11.958;2022-08-21T13:42:40;2.80;;;2.23;;
7191;SDS011;3637;51.494;11.958;2022-08-21T13:45:49;3.17;;;2.40;;
7191;SDS011;3637;51.494;11.958;2022-08-21T13:48:53;3.20;;;2.20;;
7191;SDS011;3637;51.494;11.958;2022-08-21T13:51:55;2.83;;;2.53;;
7191;SDS011;3637;51.494;11.958;2022-08-21T13:54:59;2.53;;;2.20;;
7191;SDS011;3637;51.494;11.958;2022-08-21T13:58:23;3.73;;;2.40;;
7191;SDS011;3637;51.494;11.958;2022-08-21T14:01:28;2.40;;;2.20;;
7191;SDS011;3637;51.494;11.958;2022-08-21T14:04:34;3.33;;;1.90;;
7191;SDS011;3637;51.494;11.958;2022-08-21T14:07:38;3.17;;;2.27;;
7191;SDS011;3637;51.494;11.958;2022-08-21T14:10:43;2.93;;;2.10;;
7191;SDS011;3637;51.494;11.958;2022-08-21T14:13:49;2.53;;;2.03;;
7191;SDS011;3637;51.494;11.958;2022-08-21T14:16:59;2.10;;;1.90;;
7191;SDS011;3637;51.494;11.958;2022-08-21T14:20:03;3.00;;;2.17;;
7191;SDS011;3637;51.494;11.958;2022-08-21T14:23:07;2.70;;;1.93;;
7191;SDS011;3637;51.494;11.958;2022-08-21T14:26:09;3.13;;;2.17;;
7191;SDS011;3637;51.494;11.958;2022-08-21T14:29:11;2.40;;;2.10;;
7191;SDS011;3637;51.494;11.958;2022-08-21T14:32:19;2.10;;;1.90;;
7191;SDS011;3637;51.494;11.958;2022-08-21T14:35:23;4.57;;;2.20;;
7191;SDS011;3637;51.494;11.958;2022-08-21T14:38:26;4.33;;;2.37;;
7191;SDS011;3637;51.494;11.958;2022-08-21T14:41:28;3.33;;;2.13;;
7191;SDS011;3637;51.494;11.958;2022-08-21T14:44:31;2.07;;;1.87;;
7191;SDS011;3637;51.494;11.958;2022-08-21T14:47:34;2.87;;;2.00;;
7191;SDS011;3637;51.494;11.958;2022-08-21T14:50:37;3.40;;;2.20;;
7191;SDS011;3637;51.494;11.958;2022-08-21T14:53:40;3.47;;;2.13;;
7191;SDS011;3637;51.494;11.958;2022-08-21T14:56:42;3.47;;;2.13;;
7191;SDS011;3637;51.494;11.958;2022-08-21T14:59:44;3.70;;;2.20;;
7191;SDS011;3637;51.494;11.958;2022-08-21T15:02:47;4.43;;;2.10;;
7191;SDS011;3637;51.494;11.958;2022-08-21T15:05:49;2.07;;;1.87;;
7191;SDS011;3637;51.494;11.958;2022-08-21T15:08:53;2.63;;;1.83;;
7191;SDS011;3637;51.494;11.958;2022-08-21T15:11:57;2.30;;;1.80;;
7191;SDS011;3637;51.494;11.958;2022-08-21T15:15:01;3.20;;;2.10;;
7191;SDS011;3637;51.494;11.958;2022-08-21T15:18:07;7.63;;;2.23;;
7191;SDS011;3637;51.494;11.958;2022-08-21T15:21:09;2.87;;;2.20;;
7191;SDS011;3637;51.494;11.958;2022-08-21T15:24:11;4.13;;;2.40;;
7191;SDS011;3637;51.494;11.958;2022-08-21T15:27:12;2.80;;;2.00;;
7191;SDS011;3637;51.494;11.958;2022-08-21T15:30:16;2.27;;;2.00;;
7191;SDS011;3637;51.494;11.958;2022-08-21T15:33:19;3.50;;;2.20;;
7191;SDS011;3637;51.494;11.958;2022-08-21T15:36:21;3.00;;;2.20;;
7191;SDS011;3637;51.494;11.958;2022-08-21T15:39:24;3.07;;;2.27;;
7191;SDS011;3637;51.494;11.958;2022-08-21T15:42:26;2.57;;;2.37;;
7191;SDS011;3637;51.494;11.958;2022-08-21T15:45:29;3.33;;;2.20;;
7191;SDS011;3637;51.494;11.958;2022-08-21T15:48:32;2.63;;;2.10;;
7191;SDS011;3637;51.494;11.958;2022-08-21T15:51:34;3.13;;;2.60;;
7191;SDS011;3637;51.494;11.958;2022-08-21T15:54:36;2.43;;;1.93;;
7191;SDS011;3637;51.494;11.958;2022-08-21T15:57:42;3.63;;;2.03;;
7191;SDS011;3637;51.494;11.958;2022-08-21T16:00:45;3.13;;;2.33;;
7191;SDS011;3637;51.494;11.958;2022-08-21T16:03:49;2.83;;;2.00;;
7191;SDS011;3637;51.494;11.958;2022-08-21T16:06:53;3.80;;;1.93;;
7191;SDS011;3637;51.494;11.958;2022-08-21T16:09:55;2.10;;;1.90;;
7191;SDS011;3637;51.494;11.958;2022-08-21T16:12:58;2.40;;;2.00;;
7191;SDS011;3637;51.494;11.958;2022-08-21T16:16:03;2.50;;;2.10;;
7191;SDS011;3637;51.494;11.958;2022-08-21T16:19:08;3.63;;;2.10;;
7191;SDS011;3637;51.494;11.958;2022-08-21T16:22:11;2.73;;;2.10;;
7191;SDS011;3637;51.494;11.958;2022-08-21T16:25:14;2.20;;;2.00;;
7191;SDS011;3637;51.494;11.958;2022-08-21T16:28:17;2.43;;;1.90;;
7191;SDS011;3637;51.494;11.958;2022-08-21T16:31:20;2.23;;;2.03;;
7191;SDS011;3637;51.494;11.958;2022-08-21T16:34:24;2.40;;;2.20;;
7191;SDS011;3637;51.494;11.958;2022-08-21T16:37:27;2.80;;;2.30;;
7191;SDS011;3637;51.494;11.958;2022-08-21T16:40:29;2.90;;;2.60;;
7191;SDS011;3637;51.494;11.958;2022-08-21T16:43:31;3.03;;;2.03;;
7191;SDS011;3637;51.494;11.958;2022-08-21T16:46:34;2.77;;;2.10;;
7191;SDS011;3637;51.494;11.958;2022-08-21T16:49:40;2.50;;;2.20;;
7191;SDS011;3637;51.494;11.958;2022-08-21T16:52:42;2.80;;;2.20;;
7191;SDS011;3637;51.494;11.958;2022-08-21T16:55:44;3.20;;;1.90;;
7191;SDS011;3637;51.494;11.958;2022-08-21T16:58:47;2.43;;;2.10;;
7191;SDS011;3637;51.494;11.958;2022-08-21T17:01:49;5.80;;;3.60;;
7191;SDS011;3637;51.494;11.958;2022-08-21T17:04:54;2.80;;;2.13;;
7191;SDS011;3637;51.494;11.958;2022-08-21T17:07:56;3.63;;;2.30;;
7191;SDS011;3637;51.494;11.958;2022-08-21T17:10:58;3.93;;;2.20;;
7191;SDS011;3637;51.494;11.958;2022-08-21T17:14:03;3.67;;;2.00;;
7191;SDS011;3637;51.494;11.958;2022-08-21T17:17:07;5.50;;;2.13;;
7191;SDS011;3637;51.494;11.958;2022-08-21T17:20:12;2.80;;;2.23;;
7191;SDS011;3637;51.494;11.958;2022-08-21T17:23:14;2.20;;;1.87;;
7191;SDS011;3637;51.494;11.958;2022-08-21T17:26:17;2.87;;;2.17;;
7191;SDS011;3637;51.494;11.958;2022-08-21T17:29:19;2.30;;;2.00;;
7191;SDS011;3637;51.494;11.958;2022-08-21T17:32:25;3.03;;;2.00;;
7191;SDS011;3637;51.494;11.958;2022-08-21T17:35:29;2.07;;;1.87;;
7191;SDS011;3637;51.494;11.958;2022-08-21T17:38:33;2.23;;;1.97;;
7191;SDS011;3637;51.494;11.958;2022-08-21T17:41:36;3.70;;;2.17;;
7191;SDS011;3637;51.494;11.958;2022-08-21T17:44:41;2.40;;;2.00;;
7191;SDS011;3637;51.494;11.958;2022-08-21T17:47:45;4.47;;;2.10;;
7191;SDS011;3637;51.494;11.958;2022-08-21T17:50:48;3.57;;;2.20;;
7191;SDS011;3637;51.494;11.958;2022-08-21T17:53:50;3.10;;;2.40;;
7191;SDS011;3637;51.494;11.958;2022-08-21T17:56:52;5.40;;;2.60;;
7191;SDS011;3637;51.494;11.958;2022-08-21T17:59:55;2.10;;;1.90;;
7191;SDS011;3637;51.494;11.958;2022-08-21T18:02:58;3.63;;;2.47;;
7191;SDS011;3637;51.494;11.958;2022-08-21T18:06:03;2.10;;;1.90;;
7191;SDS011;3637;51.494;11.958;2022-08-21T18:09:06;2.93;;;2.37;;
7191;SDS011;3637;51.494;11.958;2022-08-21T18:12:08;3.83;;;2.30;;
7191;SDS011;3637;51.494;11.958;2022-08-21T18:15:11;2.50;;;2.20;;
7191;SDS011;3637;51.494;11.958;2022-08-21T18:18:16;3.63;;;2.10;;
7191;SDS011;3637;51.494;11.958;2022-08-21T18:21:19;4.33;;;2.43;;
7191;SDS011;3637;51.494;11.958;2022-08-21T18:24:21;2.77;;;2.50;;
7191;SDS011;3637;51.494;11.958;2022-08-21T18:27:23;2.60;;;2.40;;
7191;SDS011;3637;51.494;11.958;2022-08-21T18:30:25;3.00;;;2.10;;
7191;SDS011;3637;51.494;11.958;2022-08-21T18:33:27;2.73;;;1.90;;
7191;SDS011;3637;51.494;11.958;2022-08-21T18:36:31;2.80;;;2.13;;
7191;SDS011;3637;51.494;11.958;2022-08-21T18:39:33;2.37;;;1.80;;
7191;SDS011;3637;51.494;11.958;2022-08-21T18:42:37;3.60;;;3.00;;
7191;SDS011;3637;51.494;11.958;2022-08-21T18:45:43;2.57;;;1.93;;
7191;SDS011;3637;51.494;11.958;2022-08-21T18:48:46;3.37;;;2.10;;